sensor_id;sensor_type;location;lat;lon;timestamp;temperature;humidity
12438;DHT22;6283;51.330;12.374;2023-07-13T00:01:12;23.20;1.00
12438;DHT22;6283;51.330;12.374;2023-07-13T00:03:38;23.30;1.00
12438;DHT22;6283;51.330;12.374;2023-07-13T00:06:07;23.20;1.00
12438;DHT22;6283;51.330;12.374;2023-07-13T00:08:33;23.20;1.00
12438;DHT22;6283;51.330;12.374;2023-07-13T00:11:00;23.20;1.00
12438;DHT22;6283;51.330;12.374;2023-07-13T00:13:26;23.20;1.00
12438;DHT22;6283;51.330;12.374;2023-07-13T00:15:51;23.10;1.00
12438;DHT22;6283;51.330;12.374;2023-07-13T00:18:19;23.10;1.00
12438;DHT22;6283;51.330;12.374;2023-07-13T00:20:45;23.10;1.00
12438;DHT22;6283;51.330;12.374;2023-07-13T00:23:11;23.00;1.00
12438;DHT22;6283;51.330;12.374;2023-07-13T00:25:37;23.00;1.00
12438;DHT22;6283;51.330;12.374;2023-07-13T00:28:03;22.90;1.00
12438;DHT22;6283;51.330;12.374;2023-07-13T00:30:28;22.90;1.00
12438;DHT22;6283;51.330;12.374;2023-07-13T00:32:54;22.80;1.00
12438;DHT22;6283;51.330;12.374;2023-07-13T00:35:20;22.80;1.00
12438;DHT22;6283;51.330;12.374;2023-07-13T00:37:45;22.70;1.00
12438;DHT22;6283;51.330;12.374;2023-07-13T00:40:13;22.70;1.00
12438;DHT22;6283;51.330;12.374;2023-07-13T00:42:39;22.70;1.00
12438;DHT22;6283;51.330;12.374;2023-07-13T00:47:37;22.60;1.00
12438;DHT22;6283;51.330;12.374;2023-07-13T00:50:05;22.60;1.00
12438;DHT22;6283;51.330;12.374;2023-07-13T00:52:32;22.50;1.00
12438;DHT22;6283;51.330;12.374;2023-07-13T00:54:58;22.50;1.00
12438;DHT22;6283;51.330;12.374;2023-07-13T00:57:24;22.50;1.00
12438;DHT22;6283;51.330;12.374;2023-07-13T00:59:57;22.50;1.00
12438;DHT22;6283;51.330;12.374;2023-07-13T01:02:24;22.40;1.00
12438;DHT22;6283;51.330;12.374;2023-07-13T01:04:50;22.40;1.00
12438;DHT22;6283;51.330;12.374;2023-07-13T01:07:16;22.50;1.00
12438;DHT22;6283;51.330;12.374;2023-07-13T01:09:43;22.40;1.00
12438;DHT22;6283;51.330;12.374;2023-07-13T01:12:10;22.40;1.00
12438;DHT22;6283;51.330;12.374;2023-07-13T01:14:36;22.30;1.00
12438;DHT22;6283;51.330;12.374;2023-07-13T01:17:02;22.30;1.00
12438;DHT22;6283;51.330;12.374;2023-07-13T01:19:41;22.20;1.00
12438;DHT22;6283;51.330;12.374;2023-07-13T01:22:16;22.10;1.00
12438;DHT22;6283;51.330;12.374;2023-07-13T01:24:45;22.00;1.00
12438;DHT22;6283;51.330;12.374;2023-07-13T01:27:13;22.00;1.00
12438;DHT22;6283;51.330;12.374;2023-07-13T01:29:41;21.90;1.00
12438;DHT22;6283;51.330;12.374;2023-07-13T01:32:12;21.80;1.00
12438;DHT22;6283;51.330;12.374;2023-07-13T01:34:38;21.80;1.00
12438;DHT22;6283;51.330;12.374;2023-07-13T01:37:11;21.70;1.00
12438;DHT22;6283;51.330;12.374;2023-07-13T01:39:37;21.60;1.00
12438;DHT22;6283;51.330;12.374;2023-07-13T01:42:03;21.60;1.00
12438;DHT22;6283;51.330;12.374;2023-07-13T01:44:29;21.50;1.00
12438;DHT22;6283;51.330;12.374;2023-07-13T01:46:55;21.40;1.00
12438;DHT22;6283;51.330;12.374;2023-07-13T01:49:21;21.40;1.00
12438;DHT22;6283;51.330;12.374;2023-07-13T01:51:46;21.30;1.00
12438;DHT22;6283;51.330;12.374;2023-07-13T01:54:12;21.30;1.00
12438;DHT22;6283;51.330;12.374;2023-07-13T01:56:38;21.20;1.00
12438;DHT22;6283;51.330;12.374;2023-07-13T01:59:05;21.20;1.00
12438;DHT22;6283;51.330;12.374;2023-07-13T02:01:30;21.10;1.00
12438;DHT22;6283;51.330;12.374;2023-07-13T02:03:56;21.10;1.00
12438;DHT22;6283;51.330;12.374;2023-07-13T02:06:24;21.00;1.00
12438;DHT22;6283;51.330;12.374;2023-07-13T02:08:50;21.00;1.00
12438;DHT22;6283;51.330;12.374;2023-07-13T02:11:16;20.90;1.00
12438;DHT22;6283;51.330;12.374;2023-07-13T02:13:42;20.90;1.00
12438;DHT22;6283;51.330;12.374;2023-07-13T02:16:08;20.80;1.00
12438;DHT22;6283;51.330;12.374;2023-07-13T02:18:34;20.70;1.00
12438;DHT22;6283;51.330;12.374;2023-07-13T02:21:02;20.70;1.00
12438;DHT22;6283;51.330;12.374;2023-07-13T02:23:28;20.60;1.00
12438;DHT22;6283;51.330;12.374;2023-07-13T02:25:58;20.60;1.00
12438;DHT22;6283;51.330;12.374;2023-07-13T02:28:24;20.50;1.00
12438;DHT22;6283;51.330;12.374;2023-07-13T02:30:49;20.50;1.00
12438;DHT22;6283;51.330;12.374;2023-07-13T02:33:15;20.50;1.00
12438;DHT22;6283;51.330;12.374;2023-07-13T02:35:41;20.50;1.00
12438;DHT22;6283;51.330;12.374;2023-07-13T02:38:07;20.40;1.00
12438;DHT22;6283;51.330;12.374;2023-07-13T02:40:32;20.40;1.00
12438;DHT22;6283;51.330;12.374;2023-07-13T02:42:59;20.30;1.00
12438;DHT22;6283;51.330;12.374;2023-07-13T02:45:25;20.30;1.00
12438;DHT22;6283;51.330;12.374;2023-07-13T02:47:51;20.20;1.00
12438;DHT22;6283;51.330;12.374;2023-07-13T02:50:17;20.20;1.00
12438;DHT22;6283;51.330;12.374;2023-07-13T02:52:42;20.10;1.00
12438;DHT22;6283;51.330;12.374;2023-07-13T02:55:08;20.10;1.00
12438;DHT22;6283;51.330;12.374;2023-07-13T02:57:34;20.00;1.00
12438;DHT22;6283;51.330;12.374;2023-07-13T03:00:00;20.00;1.00
12438;DHT22;6283;51.330;12.374;2023-07-13T03:02:26;19.90;1.00
12438;DHT22;6283;51.330;12.374;2023-07-13T03:04:54;19.90;1.00
12438;DHT22;6283;51.330;12.374;2023-07-13T03:07:20;19.90;1.00
12438;DHT22;6283;51.330;12.374;2023-07-13T03:09:46;19.90;1.00
12438;DHT22;6283;51.330;12.374;2023-07-13T03:12:11;19.80;1.00
12438;DHT22;6283;51.330;12.374;2023-07-13T03:14:37;19.80;1.00
12438;DHT22;6283;51.330;12.374;2023-07-13T03:17:02;19.80;1.00
12438;DHT22;6283;51.330;12.374;2023-07-13T03:19:28;19.80;1.00
12438;DHT22;6283;51.330;12.374;2023-07-13T03:21:54;19.70;1.00
12438;DHT22;6283;51.330;12.374;2023-07-13T03:24:19;19.70;1.00
12438;DHT22;6283;51.330;12.374;2023-07-13T03:26:46;19.60;1.00
12438;DHT22;6283;51.330;12.374;2023-07-13T03:29:11;19.60;1.00
12438;DHT22;6283;51.330;12.374;2023-07-13T03:31:37;19.60;1.00
12438;DHT22;6283;51.330;12.374;2023-07-13T03:34:03;19.60;1.00
12438;DHT22;6283;51.330;12.374;2023-07-13T03:36:30;19.50;1.00
12438;DHT22;6283;51.330;12.374;2023-07-13T03:38:58;19.50;1.00
12438;DHT22;6283;51.330;12.374;2023-07-13T03:41:25;19.50;1.00
12438;DHT22;6283;51.330;12.374;2023-07-13T03:43:51;19.60;1.00
12438;DHT22;6283;51.330;12.374;2023-07-13T03:46:17;19.50;1.00
12438;DHT22;6283;51.330;12.374;2023-07-13T03:48:45;19.50;1.00
12438;DHT22;6283;51.330;12.374;2023-07-13T03:51:13;19.50;1.00
12438;DHT22;6283;51.330;12.374;2023-07-13T03:53:42;19.60;1.00
12438;DHT22;6283;51.330;12.374;2023-07-13T03:56:09;19.50;1.00
12438;DHT22;6283;51.330;12.374;2023-07-13T03:58:39;19.50;1.00
12438;DHT22;6283;51.330;12.374;2023-07-13T04:01:07;19.40;1.00
12438;DHT22;6283;51.330;12.374;2023-07-13T04:03:34;19.40;1.00
12438;DHT22;6283;51.330;12.374;2023-07-13T04:06:01;19.30;1.00
12438;DHT22;6283;51.330;12.374;2023-07-13T04:08:28;19.30;1.00
12438;DHT22;6283;51.330;12.374;2023-07-13T04:10:55;19.30;1.00
12438;DHT22;6283;51.330;12.374;2023-07-13T04:13:21;19.20;1.00
12438;DHT22;6283;51.330;12.374;2023-07-13T04:15:47;19.20;1.00
12438;DHT22;6283;51.330;12.374;2023-07-13T04:18:13;19.20;1.00
12438;DHT22;6283;51.330;12.374;2023-07-13T04:20:38;19.20;1.00
12438;DHT22;6283;51.330;12.374;2023-07-13T04:23:04;19.20;1.00
12438;DHT22;6283;51.330;12.374;2023-07-13T04:25:30;19.10;1.00
12438;DHT22;6283;51.330;12.374;2023-07-13T04:27:56;19.10;1.00
12438;DHT22;6283;51.330;12.374;2023-07-13T04:30:22;19.10;1.00
12438;DHT22;6283;51.330;12.374;2023-07-13T04:32:51;19.20;1.00
12438;DHT22;6283;51.330;12.374;2023-07-13T04:35:18;19.10;1.00
12438;DHT22;6283;51.330;12.374;2023-07-13T04:37:46;19.20;1.00
12438;DHT22;6283;51.330;12.374;2023-07-13T04:40:12;19.20;1.00
12438;DHT22;6283;51.330;12.374;2023-07-13T04:42:38;19.20;1.00
12438;DHT22;6283;51.330;12.374;2023-07-13T04:45:08;19.30;1.00
12438;DHT22;6283;51.330;12.374;2023-07-13T04:47:33;19.30;1.00
12438;DHT22;6283;51.330;12.374;2023-07-13T04:49:59;19.30;1.00
12438;DHT22;6283;51.330;12.374;2023-07-13T04:52:25;19.40;1.00
12438;DHT22;6283;51.330;12.374;2023-07-13T04:54:50;19.30;1.00
12438;DHT22;6283;51.330;12.374;2023-07-13T04:57:16;19.40;1.00
12438;DHT22;6283;51.330;12.374;2023-07-13T04:59:42;19.50;1.00
12438;DHT22;6283;51.330;12.374;2023-07-13T05:02:07;19.50;1.00
12438;DHT22;6283;51.330;12.374;2023-07-13T05:04:33;19.50;1.00
12438;DHT22;6283;51.330;12.374;2023-07-13T05:06:59;19.50;1.00
12438;DHT22;6283;51.330;12.374;2023-07-13T05:09:25;19.60;1.00
12438;DHT22;6283;51.330;12.374;2023-07-13T05:11:51;19.70;1.00
12438;DHT22;6283;51.330;12.374;2023-07-13T05:14:16;19.70;1.00
12438;DHT22;6283;51.330;12.374;2023-07-13T05:16:42;19.80;1.00
12438;DHT22;6283;51.330;12.374;2023-07-13T05:19:09;19.90;1.00
12438;DHT22;6283;51.330;12.374;2023-07-13T05:21:35;20.00;1.00
12438;DHT22;6283;51.330;12.374;2023-07-13T05:24:00;20.10;1.00
12438;DHT22;6283;51.330;12.374;2023-07-13T05:26:26;20.20;1.00
12438;DHT22;6283;51.330;12.374;2023-07-13T05:28:52;20.30;1.00
12438;DHT22;6283;51.330;12.374;2023-07-13T05:31:18;20.40;1.00
12438;DHT22;6283;51.330;12.374;2023-07-13T05:33:44;20.60;1.00
12438;DHT22;6283;51.330;12.374;2023-07-13T05:36:10;20.70;1.00
12438;DHT22;6283;51.330;12.374;2023-07-13T05:38:35;20.90;1.00
12438;DHT22;6283;51.330;12.374;2023-07-13T05:41:01;21.00;1.00
12438;DHT22;6283;51.330;12.374;2023-07-13T05:43:27;21.20;1.00
12438;DHT22;6283;51.330;12.374;2023-07-13T05:45:56;21.40;1.00
12438;DHT22;6283;51.330;12.374;2023-07-13T05:48:23;21.60;1.00
12438;DHT22;6283;51.330;12.374;2023-07-13T05:50:49;21.70;1.00
12438;DHT22;6283;51.330;12.374;2023-07-13T05:53:15;21.90;1.00
12438;DHT22;6283;51.330;12.374;2023-07-13T05:55:44;22.10;1.00
12438;DHT22;6283;51.330;12.374;2023-07-13T05:58:13;22.20;1.00
12438;DHT22;6283;51.330;12.374;2023-07-13T06:00:39;22.20;1.00
12438;DHT22;6283;51.330;12.374;2023-07-13T06:03:05;22.10;1.00
12438;DHT22;6283;51.330;12.374;2023-07-13T06:05:32;22.10;1.00
12438;DHT22;6283;51.330;12.374;2023-07-13T06:07:59;22.10;1.00
12438;DHT22;6283;51.330;12.374;2023-07-13T06:10:25;22.00;1.00
12438;DHT22;6283;51.330;12.374;2023-07-13T06:12:50;22.10;1.00
12438;DHT22;6283;51.330;12.374;2023-07-13T06:15:16;22.10;1.00
12438;DHT22;6283;51.330;12.374;2023-07-13T06:17:42;22.20;1.00
12438;DHT22;6283;51.330;12.374;2023-07-13T06:20:08;22.20;1.00
12438;DHT22;6283;51.330;12.374;2023-07-13T06:22:33;22.10;1.00
12438;DHT22;6283;51.330;12.374;2023-07-13T06:24:59;22.10;1.00
12438;DHT22;6283;51.330;12.374;2023-07-13T06:27:25;22.10;1.00
12438;DHT22;6283;51.330;12.374;2023-07-13T06:29:50;22.10;1.00
12438;DHT22;6283;51.330;12.374;2023-07-13T06:32:16;22.10;1.00
12438;DHT22;6283;51.330;12.374;2023-07-13T06:34:42;22.10;1.00
12438;DHT22;6283;51.330;12.374;2023-07-13T06:37:08;22.10;1.00
12438;DHT22;6283;51.330;12.374;2023-07-13T06:39:34;22.20;1.00
12438;DHT22;6283;51.330;12.374;2023-07-13T06:41:59;22.20;1.00
12438;DHT22;6283;51.330;12.374;2023-07-13T06:44:25;22.30;1.00
12438;DHT22;6283;51.330;12.374;2023-07-13T06:46:51;22.30;1.00
12438;DHT22;6283;51.330;12.374;2023-07-13T06:49:16;22.30;1.00
12438;DHT22;6283;51.330;12.374;2023-07-13T06:51:42;22.30;1.00
12438;DHT22;6283;51.330;12.374;2023-07-13T06:54:07;22.40;1.00
12438;DHT22;6283;51.330;12.374;2023-07-13T06:56:33;22.50;1.00
12438;DHT22;6283;51.330;12.374;2023-07-13T06:58:59;22.50;1.00
12438;DHT22;6283;51.330;12.374;2023-07-13T07:01:25;22.60;1.00
12438;DHT22;6283;51.330;12.374;2023-07-13T07:03:51;22.70;1.00
12438;DHT22;6283;51.330;12.374;2023-07-13T07:06:19;22.70;1.00
12438;DHT22;6283;51.330;12.374;2023-07-13T07:08:45;22.80;1.00
12438;DHT22;6283;51.330;12.374;2023-07-13T07:11:17;22.90;1.00
12438;DHT22;6283;51.330;12.374;2023-07-13T07:13:43;23.00;1.00
12438;DHT22;6283;51.330;12.374;2023-07-13T07:16:09;23.00;1.00
12438;DHT22;6283;51.330;12.374;2023-07-13T07:18:35;23.10;1.00
12438;DHT22;6283;51.330;12.374;2023-07-13T07:21:00;23.10;1.00
12438;DHT22;6283;51.330;12.374;2023-07-13T07:23:26;23.10;1.00
12438;DHT22;6283;51.330;12.374;2023-07-13T07:25:52;23.00;1.00
12438;DHT22;6283;51.330;12.374;2023-07-13T07:28:18;23.00;1.00
12438;DHT22;6283;51.330;12.374;2023-07-13T07:30:45;22.90;1.00
12438;DHT22;6283;51.330;12.374;2023-07-13T07:33:11;22.90;1.00
12438;DHT22;6283;51.330;12.374;2023-07-13T07:35:36;22.80;1.00
12438;DHT22;6283;51.330;12.374;2023-07-13T07:38:02;22.80;1.00
12438;DHT22;6283;51.330;12.374;2023-07-13T07:40:28;22.90;1.00
12438;DHT22;6283;51.330;12.374;2023-07-13T07:42:53;23.00;1.00
12438;DHT22;6283;51.330;12.374;2023-07-13T07:45:19;23.30;1.00
12438;DHT22;6283;51.330;12.374;2023-07-13T07:47:45;23.50;1.00
12438;DHT22;6283;51.330;12.374;2023-07-13T07:50:11;23.60;1.00
12438;DHT22;6283;51.330;12.374;2023-07-13T07:52:37;23.60;1.00
12438;DHT22;6283;51.330;12.374;2023-07-13T07:55:04;23.70;1.00
12438;DHT22;6283;51.330;12.374;2023-07-13T07:57:31;23.60;1.00
12438;DHT22;6283;51.330;12.374;2023-07-13T07:59:56;23.60;1.00
12438;DHT22;6283;51.330;12.374;2023-07-13T08:02:22;23.60;1.00
12438;DHT22;6283;51.330;12.374;2023-07-13T08:04:48;23.50;1.00
12438;DHT22;6283;51.330;12.374;2023-07-13T08:07:13;23.40;1.00
12438;DHT22;6283;51.330;12.374;2023-07-13T08:09:39;23.30;1.00
12438;DHT22;6283;51.330;12.374;2023-07-13T08:12:05;23.20;1.00
12438;DHT22;6283;51.330;12.374;2023-07-13T08:14:31;23.20;1.00
12438;DHT22;6283;51.330;12.374;2023-07-13T08:16:56;23.20;1.00
12438;DHT22;6283;51.330;12.374;2023-07-13T08:19:22;23.30;1.00
12438;DHT22;6283;51.330;12.374;2023-07-13T08:21:47;23.40;1.00
12438;DHT22;6283;51.330;12.374;2023-07-13T08:24:14;23.50;1.00
12438;DHT22;6283;51.330;12.374;2023-07-13T08:26:40;23.60;1.00
12438;DHT22;6283;51.330;12.374;2023-07-13T08:29:05;23.80;1.00
12438;DHT22;6283;51.330;12.374;2023-07-13T08:31:31;23.90;1.00
12438;DHT22;6283;51.330;12.374;2023-07-13T08:33:57;24.00;1.00
12438;DHT22;6283;51.330;12.374;2023-07-13T08:36:22;24.00;1.00
12438;DHT22;6283;51.330;12.374;2023-07-13T08:38:48;24.10;1.00
12438;DHT22;6283;51.330;12.374;2023-07-13T08:41:17;24.20;1.00
12438;DHT22;6283;51.330;12.374;2023-07-13T08:43:46;24.20;1.00
12438;DHT22;6283;51.330;12.374;2023-07-13T08:46:36;24.30;1.00
12438;DHT22;6283;51.330;12.374;2023-07-13T08:49:21;24.20;1.00
12438;DHT22;6283;51.330;12.374;2023-07-13T08:52:01;24.20;1.00
12438;DHT22;6283;51.330;12.374;2023-07-13T08:54:35;24.20;1.00
12438;DHT22;6283;51.330;12.374;2023-07-13T08:57:15;24.10;1.00
12438;DHT22;6283;51.330;12.374;2023-07-13T08:59:42;24.10;1.00
12438;DHT22;6283;51.330;12.374;2023-07-13T09:10:15;24.20;1.00
12438;DHT22;6283;51.330;12.374;2023-07-13T09:12:57;24.40;1.00
12438;DHT22;6283;51.330;12.374;2023-07-13T09:15:40;24.50;1.00
12438;DHT22;6283;51.330;12.374;2023-07-13T09:20:57;24.60;1.00
12438;DHT22;6283;51.330;12.374;2023-07-13T09:23:26;24.50;1.00
12438;DHT22;6283;51.330;12.374;2023-07-13T09:26:19;24.40;1.00
12438;DHT22;6283;51.330;12.374;2023-07-13T09:28:47;24.40;1.00
12438;DHT22;6283;51.330;12.374;2023-07-13T09:31:20;24.40;1.00
12438;DHT22;6283;51.330;12.374;2023-07-13T09:33:49;24.50;1.00
12438;DHT22;6283;51.330;12.374;2023-07-13T09:36:26;24.60;1.00
12438;DHT22;6283;51.330;12.374;2023-07-13T09:44:17;24.90;1.00
12438;DHT22;6283;51.330;12.374;2023-07-13T09:46:51;25.00;1.00
12438;DHT22;6283;51.330;12.374;2023-07-13T09:49:17;25.00;1.00
12438;DHT22;6283;51.330;12.374;2023-07-13T09:51:44;25.00;1.00
12438;DHT22;6283;51.330;12.374;2023-07-13T09:54:24;25.00;1.00
12438;DHT22;6283;51.330;12.374;2023-07-13T09:56:57;25.00;1.00
12438;DHT22;6283;51.330;12.374;2023-07-13T09:59:29;24.80;1.00
12438;DHT22;6283;51.330;12.374;2023-07-13T10:01:55;24.70;1.00
12438;DHT22;6283;51.330;12.374;2023-07-13T10:04:27;24.60;1.00
12438;DHT22;6283;51.330;12.374;2023-07-13T10:07:05;24.50;1.00
12438;DHT22;6283;51.330;12.374;2023-07-13T10:09:31;24.50;1.00
12438;DHT22;6283;51.330;12.374;2023-07-13T10:11:57;24.50;1.00
12438;DHT22;6283;51.330;12.374;2023-07-13T10:14:23;24.60;1.00
12438;DHT22;6283;51.330;12.374;2023-07-13T10:16:56;24.70;1.00
12438;DHT22;6283;51.330;12.374;2023-07-13T10:19:26;24.70;1.00
12438;DHT22;6283;51.330;12.374;2023-07-13T10:21:58;24.70;1.00
12438;DHT22;6283;51.330;12.374;2023-07-13T10:24:30;24.90;1.00
12438;DHT22;6283;51.330;12.374;2023-07-13T10:27:17;25.00;1.00
12438;DHT22;6283;51.330;12.374;2023-07-13T10:30:13;25.10;1.00
12438;DHT22;6283;51.330;12.374;2023-07-13T10:32:40;25.30;1.00
12438;DHT22;6283;51.330;12.374;2023-07-13T10:35:13;25.40;1.00
12438;DHT22;6283;51.330;12.374;2023-07-13T10:37:51;25.50;1.00
12438;DHT22;6283;51.330;12.374;2023-07-13T10:40:28;25.30;1.00
12438;DHT22;6283;51.330;12.374;2023-07-13T10:42:57;25.10;1.00
12438;DHT22;6283;51.330;12.374;2023-07-13T10:45:24;25.00;1.00
12438;DHT22;6283;51.330;12.374;2023-07-13T10:47:53;25.00;1.00
12438;DHT22;6283;51.330;12.374;2023-07-13T10:50:28;25.00;1.00
12438;DHT22;6283;51.330;12.374;2023-07-13T10:53:17;25.10;1.00
12438;DHT22;6283;51.330;12.374;2023-07-13T10:58:31;25.50;1.00
12438;DHT22;6283;51.330;12.374;2023-07-13T11:03:46;25.40;1.00
12438;DHT22;6283;51.330;12.374;2023-07-13T11:06:15;25.20;1.00
12438;DHT22;6283;51.330;12.374;2023-07-13T11:19:23;25.50;1.00
12438;DHT22;6283;51.330;12.374;2023-07-13T11:21:34;25.60;1.00
12438;DHT22;6283;51.330;12.374;2023-07-13T11:24:13;25.60;1.00
12438;DHT22;6283;51.330;12.374;2023-07-13T11:31:49;25.80;1.00
12438;DHT22;6283;51.330;12.374;2023-07-13T11:34:21;25.80;1.00
12438;DHT22;6283;51.330;12.374;2023-07-13T11:36:49;25.90;1.00
12438;DHT22;6283;51.330;12.374;2023-07-13T11:39:51;26.00;1.00
12438;DHT22;6283;51.330;12.374;2023-07-13T11:42:13;26.20;1.00
12438;DHT22;6283;51.330;12.374;2023-07-13T11:44:46;26.10;1.00
12438;DHT22;6283;51.330;12.374;2023-07-13T11:47:18;26.00;1.00
12438;DHT22;6283;51.330;12.374;2023-07-13T11:49:49;26.00;1.00
12438;DHT22;6283;51.330;12.374;2023-07-13T11:52:17;26.20;1.00
12438;DHT22;6283;51.330;12.374;2023-07-13T11:54:51;26.30;1.00
12438;DHT22;6283;51.330;12.374;2023-07-13T11:57:27;26.30;1.00
12438;DHT22;6283;51.330;12.374;2023-07-13T11:59:55;26.30;1.00
12438;DHT22;6283;51.330;12.374;2023-07-13T12:02:31;26.20;1.00
12438;DHT22;6283;51.330;12.374;2023-07-13T12:04:59;26.10;1.00
12438;DHT22;6283;51.330;12.374;2023-07-13T12:07:29;26.20;1.00
12438;DHT22;6283;51.330;12.374;2023-07-13T12:10:13;26.30;1.00
12438;DHT22;6283;51.330;12.374;2023-07-13T12:13:01;26.60;1.00
12438;DHT22;6283;51.330;12.374;2023-07-13T12:15:41;27.10;1.00
12438;DHT22;6283;51.330;12.374;2023-07-13T12:18:21;27.40;1.00
12438;DHT22;6283;51.330;12.374;2023-07-13T12:20:48;27.50;1.00
12438;DHT22;6283;51.330;12.374;2023-07-13T12:23:31;27.70;1.00
12438;DHT22;6283;51.330;12.374;2023-07-13T12:25:59;27.90;1.00
12438;DHT22;6283;51.330;12.374;2023-07-13T12:28:34;27.90;1.00
12438;DHT22;6283;51.330;12.374;2023-07-13T12:31:24;28.10;1.00
12438;DHT22;6283;51.330;12.374;2023-07-13T12:36:35;27.90;1.00
12438;DHT22;6283;51.330;12.374;2023-07-13T12:39:11;27.60;1.00
12438;DHT22;6283;51.330;12.374;2023-07-13T12:41:38;27.30;1.00
12438;DHT22;6283;51.330;12.374;2023-07-13T12:44:08;27.20;1.00
12438;DHT22;6283;51.330;12.374;2023-07-13T12:46:35;27.20;1.00
12438;DHT22;6283;51.330;12.374;2023-07-13T12:49:00;27.20;1.00
12438;DHT22;6283;51.330;12.374;2023-07-13T12:51:32;27.30;1.00
12438;DHT22;6283;51.330;12.374;2023-07-13T12:54:07;27.50;1.00
12438;DHT22;6283;51.330;12.374;2023-07-13T12:56:37;27.90;1.00
12438;DHT22;6283;51.330;12.374;2023-07-13T12:59:04;28.10;1.00
12438;DHT22;6283;51.330;12.374;2023-07-13T13:01:34;28.40;1.40
12438;DHT22;6283;51.330;12.374;2023-07-13T13:04:02;28.60;99.90
12438;DHT22;6283;51.330;12.374;2023-07-13T13:06:32;28.90;99.90
12438;DHT22;6283;51.330;12.374;2023-07-13T13:08:59;29.20;99.90
12438;DHT22;6283;51.330;12.374;2023-07-13T13:11:26;29.30;1.40
12438;DHT22;6283;51.330;12.374;2023-07-13T13:13:52;29.30;1.40
12438;DHT22;6283;51.330;12.374;2023-07-13T13:19:12;29.20;99.90
12438;DHT22;6283;51.330;12.374;2023-07-13T13:21:38;29.10;99.90
12438;DHT22;6283;51.330;12.374;2023-07-13T13:24:13;29.10;99.90
12438;DHT22;6283;51.330;12.374;2023-07-13T13:26:39;29.30;99.90
12438;DHT22;6283;51.330;12.374;2023-07-13T13:29:16;29.50;99.90
12438;DHT22;6283;51.330;12.374;2023-07-13T13:31:42;29.40;99.90
12438;DHT22;6283;51.330;12.374;2023-07-13T13:34:10;29.40;99.90
12438;DHT22;6283;51.330;12.374;2023-07-13T13:36:36;29.40;99.90
12438;DHT22;6283;51.330;12.374;2023-07-13T13:39:02;29.30;99.90
12438;DHT22;6283;51.330;12.374;2023-07-13T13:41:30;29.10;99.90
12438;DHT22;6283;51.330;12.374;2023-07-13T13:43:56;28.90;1.40
12438;DHT22;6283;51.330;12.374;2023-07-13T13:46:24;28.70;1.40
12438;DHT22;6283;51.330;12.374;2023-07-13T13:48:55;28.40;1.40
12438;DHT22;6283;51.330;12.374;2023-07-13T13:51:23;28.20;1.00
12438;DHT22;6283;51.330;12.374;2023-07-13T13:53:50;28.40;1.00
12438;DHT22;6283;51.330;12.374;2023-07-13T13:56:17;28.50;1.00
12438;DHT22;6283;51.330;12.374;2023-07-13T13:58:43;28.60;1.00
12438;DHT22;6283;51.330;12.374;2023-07-13T14:01:20;28.50;1.00
12438;DHT22;6283;51.330;12.374;2023-07-13T14:03:47;28.60;1.00
12438;DHT22;6283;51.330;12.374;2023-07-13T14:06:19;28.60;1.00
12438;DHT22;6283;51.330;12.374;2023-07-13T14:08:45;28.60;1.00
12438;DHT22;6283;51.330;12.374;2023-07-13T14:11:18;28.90;1.00
12438;DHT22;6283;51.330;12.374;2023-07-13T14:13:48;29.30;1.40
12438;DHT22;6283;51.330;12.374;2023-07-13T14:16:20;29.20;1.40
12438;DHT22;6283;51.330;12.374;2023-07-13T14:18:47;28.90;1.00
12438;DHT22;6283;51.330;12.374;2023-07-13T14:21:17;28.50;1.00
12438;DHT22;6283;51.330;12.374;2023-07-13T14:23:44;28.40;1.00
12438;DHT22;6283;51.330;12.374;2023-07-13T14:26:16;28.20;1.00
12438;DHT22;6283;51.330;12.374;2023-07-13T14:28:44;28.60;1.00
12438;DHT22;6283;51.330;12.374;2023-07-13T14:31:14;28.60;1.00
12438;DHT22;6283;51.330;12.374;2023-07-13T14:33:41;28.50;1.00
12438;DHT22;6283;51.330;12.374;2023-07-13T14:38:41;28.60;1.00
12438;DHT22;6283;51.330;12.374;2023-07-13T14:41:08;28.60;1.00
12438;DHT22;6283;51.330;12.374;2023-07-13T14:43:33;28.60;1.40
12438;DHT22;6283;51.330;12.374;2023-07-13T14:45:59;28.50;1.40
12438;DHT22;6283;51.330;12.374;2023-07-13T14:48:25;28.50;1.00
12438;DHT22;6283;51.330;12.374;2023-07-13T14:50:55;28.60;1.00
12438;DHT22;6283;51.330;12.374;2023-07-13T14:53:22;28.60;1.00
12438;DHT22;6283;51.330;12.374;2023-07-13T14:55:48;28.70;1.00
12438;DHT22;6283;51.330;12.374;2023-07-13T14:58:14;28.50;1.00
12438;DHT22;6283;51.330;12.374;2023-07-13T15:00:40;28.70;1.00
12438;DHT22;6283;51.330;12.374;2023-07-13T15:03:21;28.90;99.90
12438;DHT22;6283;51.330;12.374;2023-07-13T15:05:47;29.30;99.90
12438;DHT22;6283;51.330;12.374;2023-07-13T15:08:13;29.50;99.90
12438;DHT22;6283;51.330;12.374;2023-07-13T15:10:40;29.40;99.90
12438;DHT22;6283;51.330;12.374;2023-07-13T15:13:20;29.00;99.90
12438;DHT22;6283;51.330;12.374;2023-07-13T15:15:49;28.50;99.90
12438;DHT22;6283;51.330;12.374;2023-07-13T15:18:17;28.10;1.40
12438;DHT22;6283;51.330;12.374;2023-07-13T15:20:44;27.80;1.00
12438;DHT22;6283;51.330;12.374;2023-07-13T15:23:12;27.80;1.00
12438;DHT22;6283;51.330;12.374;2023-07-13T15:25:38;27.90;1.00
12438;DHT22;6283;51.330;12.374;2023-07-13T15:28:04;28.30;1.00
12438;DHT22;6283;51.330;12.374;2023-07-13T15:30:35;28.60;1.00
12438;DHT22;6283;51.330;12.374;2023-07-13T15:35:39;28.80;1.40
12438;DHT22;6283;51.330;12.374;2023-07-13T15:38:18;28.60;1.40
12438;DHT22;6283;51.330;12.374;2023-07-13T15:40:45;28.60;1.00
12438;DHT22;6283;51.330;12.374;2023-07-13T15:43:12;28.70;1.00
12438;DHT22;6283;51.330;12.374;2023-07-13T15:45:38;28.80;1.40
12438;DHT22;6283;51.330;12.374;2023-07-13T15:48:19;28.50;1.40
12438;DHT22;6283;51.330;12.374;2023-07-13T15:50:49;28.50;1.40
12438;DHT22;6283;51.330;12.374;2023-07-13T15:53:26;28.60;1.40
12438;DHT22;6283;51.330;12.374;2023-07-13T15:55:53;28.70;1.40
12438;DHT22;6283;51.330;12.374;2023-07-13T15:58:19;28.80;99.90
12438;DHT22;6283;51.330;12.374;2023-07-13T16:00:45;28.70;99.90
12438;DHT22;6283;51.330;12.374;2023-07-13T16:03:11;28.50;1.40
12438;DHT22;6283;51.330;12.374;2023-07-13T16:05:37;28.10;1.00
12438;DHT22;6283;51.330;12.374;2023-07-13T16:08:05;27.90;1.00
12438;DHT22;6283;51.330;12.374;2023-07-13T16:10:36;28.00;1.00
12438;DHT22;6283;51.330;12.374;2023-07-13T16:13:15;27.90;1.00
12438;DHT22;6283;51.330;12.374;2023-07-13T16:15:41;28.00;1.00
12438;DHT22;6283;51.330;12.374;2023-07-13T16:18:13;28.10;1.00
12438;DHT22;6283;51.330;12.374;2023-07-13T16:20:39;28.10;1.00
12438;DHT22;6283;51.330;12.374;2023-07-13T16:23:05;27.90;1.00
12438;DHT22;6283;51.330;12.374;2023-07-13T16:25:31;27.80;1.00
12438;DHT22;6283;51.330;12.374;2023-07-13T16:27:59;27.80;1.00
12438;DHT22;6283;51.330;12.374;2023-07-13T16:30:29;27.90;1.00
12438;DHT22;6283;51.330;12.374;2023-07-13T16:32:58;27.80;1.00
12438;DHT22;6283;51.330;12.374;2023-07-13T16:35:30;27.70;1.00
12438;DHT22;6283;51.330;12.374;2023-07-13T16:38:00;27.60;1.00
12438;DHT22;6283;51.330;12.374;2023-07-13T16:40:30;27.60;1.00
12438;DHT22;6283;51.330;12.374;2023-07-13T16:42:57;27.50;1.00